createdAt,value
2018-11-21T00:02:04.653Z,6.40
2018-11-21T00:04:33.762Z,6.40
2018-11-21T00:07:10.540Z,6.40
2018-11-21T00:09:39.716Z,6.40
2018-11-21T00:12:11.885Z,6.40
2018-11-21T00:14:40.899Z,6.50
2018-11-21T00:17:12.926Z,6.40
2018-11-21T00:19:42.042Z,6.40
2018-11-21T00:22:15.021Z,6.50
2018-11-21T00:24:43.788Z,6.50
2018-11-21T00:27:19.313Z,6.50
2018-11-21T00:29:48.787Z,6.50
2018-11-21T00:32:22.359Z,6.40
2018-11-21T00:34:52.071Z,6.40
2018-11-21T00:37:22.814Z,6.50
2018-11-21T00:40:12.260Z,6.50
2018-11-21T00:43:02.827Z,6.50
2018-11-21T00:45:51.006Z,6.50
2018-11-21T00:48:39.127Z,6.50
2018-11-21T00:51:28.869Z,6.50
2018-11-21T00:54:17.380Z,6.50
2018-11-21T00:57:05.779Z,6.50
2018-11-21T00:59:53.859Z,6.50
2018-11-21T01:02:41.953Z,6.50
2018-11-21T01:05:49.088Z,6.50
2018-11-21T01:08:37.232Z,6.50
2018-11-21T01:11:25.367Z,6.50
2018-11-21T01:14:13.510Z,6.50
2018-11-21T01:17:01.609Z,6.50
2018-11-21T01:19:49.966Z,6.50
2018-11-21T01:25:38.272Z,6.50
2018-11-21T01:28:26.619Z,6.50
2018-11-21T01:31:14.637Z,6.50
2018-11-21T01:34:02.982Z,6.50
2018-11-21T01:36:53.109Z,6.50
2018-11-21T01:39:22.229Z,6.50
2018-11-21T01:41:55.860Z,6.50
2018-11-21T01:44:24.546Z,6.50
2018-11-21T01:47:06.815Z,6.50
2018-11-21T01:49:35.543Z,6.40
2018-11-21T01:52:04.302Z,6.40
2018-11-21T01:54:52.323Z,6.40
2018-11-21T01:57:40.448Z,6.30
2018-11-21T02:00:28.547Z,6.40
2018-11-21T02:03:16.599Z,6.40
2018-11-21T02:06:18.812Z,6.40
2018-11-21T02:09:26.132Z,6.40
2018-11-21T02:12:14.226Z,6.40
2018-11-21T02:15:02.271Z,6.30
2018-11-21T02:17:50.540Z,6.40
2018-11-21T02:20:38.820Z,6.30
2018-11-21T02:23:26.911Z,6.30
2018-11-21T02:26:34.197Z,6.30
2018-11-21T02:29:22.372Z,6.30
2018-11-21T02:32:10.532Z,6.30
2018-11-21T02:34:39.621Z,6.20
2018-11-21T02:37:08.356Z,6.20
2018-11-21T02:39:37.075Z,6.30
2018-11-21T02:42:06.293Z,6.30
2018-11-21T02:44:35.045Z,6.20
2018-11-21T02:47:03.868Z,6.20
2018-11-21T02:49:32.652Z,6.30
2018-11-21T02:52:01.423Z,6.30
2018-11-21T02:54:33.383Z,6.20
2018-11-21T02:57:21.820Z,6.20
2018-11-21T02:59:53.035Z,6.20
2018-11-21T03:02:21.780Z,6.20
2018-11-21T03:04:50.524Z,6.20
2018-11-21T03:07:49.417Z,6.20
2018-11-21T03:10:56.738Z,6.20
2018-11-21T03:13:44.833Z,6.20
2018-11-21T03:16:32.882Z,6.10
2018-11-21T03:19:20.940Z,6.10
2018-11-21T03:22:09.051Z,6.10
2018-11-21T03:24:57.173Z,6.10
2018-11-21T03:27:49.020Z,6.00
2018-11-21T03:30:37.047Z,5.90
2018-11-21T03:33:25.076Z,5.90
2018-11-21T03:36:13.087Z,5.90
2018-11-21T03:39:01.139Z,5.90
2018-11-21T03:41:49.132Z,5.90
2018-11-21T03:47:37.387Z,5.90
2018-11-21T03:50:25.423Z,5.80
2018-11-21T03:53:13.547Z,5.80
2018-11-21T03:55:42.647Z,5.80
2018-11-21T03:58:30.686Z,5.80
2018-11-21T04:00:59.908Z,5.80
2018-11-21T04:03:47.981Z,5.80
2018-11-21T04:06:35.989Z,5.70
2018-11-21T04:09:24.019Z,5.80
2018-11-21T04:12:31.351Z,5.70
2018-11-21T04:15:19.561Z,5.80
2018-11-21T04:18:07.554Z,5.80
2018-11-21T04:20:55.644Z,5.70
2018-11-21T04:23:43.825Z,5.70
2018-11-21T04:26:31.959Z,5.70
2018-11-21T04:29:39.313Z,5.60
2018-11-21T04:32:27.610Z,5.70
2018-11-21T04:35:16.069Z,5.70
2018-11-21T04:38:04.390Z,5.70
2018-11-21T04:40:52.483Z,5.60
2018-11-21T04:43:40.720Z,5.70
2018-11-21T04:46:48.016Z,5.70
2018-11-21T04:49:36.245Z,5.70
2018-11-21T04:52:24.264Z,5.70
2018-11-21T04:55:12.630Z,5.60
2018-11-21T04:58:00.760Z,5.60
2018-11-21T05:00:48.847Z,5.60
2018-11-21T05:03:42.481Z,5.60
2018-11-21T05:06:30.601Z,5.70
2018-11-21T05:09:18.706Z,5.70
2018-11-21T05:12:06.791Z,5.70
2018-11-21T05:14:54.914Z,5.70
2018-11-21T05:20:43.240Z,5.60
2018-11-21T05:23:31.335Z,5.60
2018-11-21T05:26:19.476Z,5.60
2018-11-21T05:29:07.624Z,5.60
2018-11-21T05:32:14.960Z,5.60
2018-11-21T05:35:03.265Z,5.60
2018-11-21T05:37:51.273Z,5.60
2018-11-21T05:40:39.375Z,5.60
2018-11-21T05:43:27.764Z,5.60
2018-11-21T05:46:15.819Z,5.60
2018-11-21T05:48:45.307Z,5.60
2018-11-21T05:51:14.029Z,5.60
2018-11-21T05:53:44.701Z,5.60
2018-11-21T05:56:13.424Z,5.60
2018-11-21T05:58:42.215Z,5.60
2018-11-21T06:01:14.828Z,5.60
2018-11-21T06:03:46.258Z,5.60
2018-11-21T06:06:17.967Z,5.60
2018-11-21T06:08:46.788Z,5.60
2018-11-21T06:11:20.223Z,5.60
2018-11-21T06:13:49.439Z,5.60
2018-11-21T06:16:22.598Z,5.60
2018-11-21T06:18:51.336Z,5.60
2018-11-21T06:21:23.489Z,5.60
2018-11-21T06:23:52.244Z,5.50
2018-11-21T06:26:28.004Z,5.50
2018-11-21T06:28:57.190Z,5.50
2018-11-21T06:31:28.954Z,5.50
2018-11-21T06:33:57.759Z,5.50
2018-11-21T06:36:35.738Z,5.50
2018-11-21T06:39:06.025Z,5.50
2018-11-21T06:41:34.742Z,5.50
2018-11-21T06:44:05.070Z,5.50
2018-11-21T06:46:53.107Z,5.50
2018-11-21T06:49:41.208Z,5.50
2018-11-21T06:52:29.598Z,5.60
2018-11-21T06:55:17.833Z,5.50
2018-11-21T06:58:06.375Z,5.50
2018-11-21T07:00:54.518Z,5.50
2018-11-21T07:04:01.864Z,5.50
2018-11-21T07:06:50.082Z,5.50
2018-11-21T07:09:38.211Z,5.50
2018-11-21T07:12:07.267Z,5.50
2018-11-21T07:14:36.091Z,5.50
2018-11-21T07:17:05.164Z,5.50
2018-11-21T07:19:35.658Z,5.50
2018-11-21T07:22:06.212Z,5.40
2018-11-21T07:24:34.967Z,5.50
2018-11-21T07:27:06.223Z,5.50
2018-11-21T07:29:37.569Z,5.60
2018-11-21T07:32:06.740Z,5.60
2018-11-21T07:34:38.994Z,5.60
2018-11-21T07:37:07.852Z,5.60
2018-11-21T07:39:36.918Z,5.60
2018-11-21T07:42:25.042Z,5.60
2018-11-21T07:45:14.535Z,5.60
2018-11-21T07:48:02.621Z,5.60
2018-11-21T07:50:50.775Z,5.60
2018-11-21T07:53:39.176Z,5.60
2018-11-21T07:56:46.588Z,5.70
2018-11-21T07:59:34.715Z,5.70
2018-11-21T08:02:28.257Z,5.70
2018-11-21T08:05:36.294Z,5.80
2018-11-21T08:08:43.347Z,5.90
2018-11-21T08:11:50.456Z,5.90
2018-11-21T08:14:57.539Z,5.90
2018-11-21T08:18:04.681Z,6.00
2018-11-21T08:21:11.893Z,6.10
2018-11-21T08:24:18.986Z,6.10
2018-11-21T08:33:53.198Z,6.10
2018-11-21T08:36:41.423Z,6.20
2018-11-21T08:39:30.080Z,6.20
2018-11-21T08:42:18.184Z,6.20
2018-11-21T08:45:06.743Z,6.20
2018-11-21T08:47:55.230Z,6.30
2018-11-21T08:50:44.717Z,6.30
2018-11-21T08:53:16.443Z,6.40
2018-11-21T08:56:04.794Z,6.40
2018-11-21T09:01:19.763Z,6.50
2018-11-21T09:04:00.597Z,6.50
2018-11-21T09:06:41.868Z,6.60
2018-11-21T09:09:22.928Z,6.70
2018-11-21T09:12:03.481Z,6.80
2018-11-21T09:14:44.565Z,6.80
2018-11-21T09:17:25.650Z,7.00
2018-11-21T09:20:06.670Z,7.00
2018-11-21T09:22:47.987Z,7.20
2018-11-21T09:25:17.992Z,7.60
2018-11-21T09:27:46.919Z,7.90
2018-11-21T09:30:17.965Z,8.10
2018-11-21T09:32:50.533Z,8.30
2018-11-21T09:35:19.787Z,9.30
2018-11-21T09:38:27.394Z,10.90
2018-11-21T09:40:56.242Z,12.90
2018-11-21T09:43:44.322Z,14.00
2018-11-21T09:46:33.110Z,15.20
2018-11-21T09:49:02.562Z,15.60
2018-11-21T09:51:31.696Z,16.20
2018-11-21T09:54:01.860Z,17.30
2018-11-21T09:56:30.823Z,18.90
2018-11-21T09:59:38.118Z,20.20
2018-11-21T10:02:45.520Z,20.60
2018-11-21T10:05:14.283Z,19.70
2018-11-21T10:08:05.215Z,18.40
2018-11-21T10:10:34.182Z,17.20
2018-11-21T10:13:30.028Z,15.90
2018-11-21T10:16:01.121Z,14.70
2018-11-21T10:18:49.928Z,13.80
2018-11-21T10:21:20.064Z,13.60
2018-11-21T10:23:49.731Z,13.90
2018-11-21T10:26:18.863Z,15.20
2018-11-21T10:29:06.930Z,17.00
2018-11-21T10:31:55.093Z,18.10
2018-11-21T10:34:43.146Z,19.10
2018-11-21T10:37:11.948Z,19.40
2018-11-21T10:39:59.990Z,18.80
2018-11-21T10:42:28.946Z,17.60
2018-11-21T10:44:58.953Z,16.10
2018-11-21T10:47:27.838Z,14.70
2018-11-21T10:49:56.648Z,13.80
2018-11-21T10:52:31.536Z,12.90
2018-11-21T10:54:57.758Z,12.20
2018-11-21T10:57:26.761Z,11.60
2018-11-21T10:59:57.878Z,11.10
2018-11-21T11:02:45.833Z,10.60
2018-11-21T11:05:34.927Z,10.30
2018-11-21T11:08:22.930Z,10.10
2018-11-21T11:11:11.415Z,9.80
2018-11-21T11:13:59.564Z,9.70
2018-11-21T11:20:08.542Z,9.30
2018-11-21T11:22:54.544Z,9.20
2018-11-21T11:25:42.810Z,9.10
2018-11-21T11:28:34.228Z,9.00
2018-11-21T11:31:22.063Z,8.90
2018-11-21T11:37:36.519Z,8.90
2018-11-21T11:40:26.693Z,8.80
2018-11-21T11:43:20.365Z,8.70
2018-11-21T11:46:08.482Z,8.70
2018-11-21T11:48:56.692Z,8.70
2018-11-21T11:51:41.378Z,8.80
2018-11-21T11:54:48.864Z,9.00
2018-11-21T11:57:55.998Z,9.30
2018-11-21T12:00:53.068Z,9.50
2018-11-21T12:04:00.142Z,9.60
2018-11-21T12:06:47.983Z,9.40
2018-11-21T12:09:37.071Z,9.30
2018-11-21T12:12:29.878Z,9.30
2018-11-21T12:15:37.239Z,9.20
2018-11-21T12:18:25.403Z,9.10
2018-11-21T12:21:14.795Z,9.00
2018-11-21T12:24:02.724Z,8.90
2018-11-21T12:26:58.334Z,8.90
2018-11-21T12:29:59.486Z,8.80
2018-11-21T12:33:06.869Z,8.80
2018-11-21T12:36:16.263Z,8.70
2018-11-21T12:39:23.848Z,8.70
2018-11-21T12:42:12.112Z,8.60
2018-11-21T12:45:19.204Z,8.50
2018-11-21T12:48:30.161Z,8.60
2018-11-21T12:51:23.132Z,8.60
2018-11-21T12:54:30.398Z,8.50
2018-11-21T12:57:18.664Z,8.40
2018-11-21T13:00:06.585Z,8.30
2018-11-21T13:03:00.614Z,8.30
2018-11-21T13:06:07.803Z,8.20
2018-11-21T13:12:03.839Z,8.20
2018-11-21T13:15:10.979Z,8.30
2018-11-21T13:18:18.879Z,8.30
2018-11-21T13:21:36.636Z,8.30
2018-11-21T13:24:43.753Z,8.40
2018-11-21T13:27:50.841Z,8.40
2018-11-21T13:30:38.762Z,8.30
2018-11-21T13:33:27.292Z,8.30
2018-11-21T13:36:15.534Z,8.20
2018-11-21T13:39:07.803Z,8.10
2018-11-21T13:41:55.943Z,8.10
2018-11-21T13:45:03.034Z,8.10
2018-11-21T13:48:02.277Z,8.10
2018-11-21T13:50:50.366Z,8.10
2018-11-21T13:54:01.452Z,8.10
2018-11-21T13:56:51.177Z,8.00
2018-11-21T13:59:29.638Z,7.90
2018-11-21T14:01:56.772Z,7.90
2018-11-21T14:04:30.686Z,7.90
2018-11-21T14:10:19.530Z,7.90
2018-11-21T14:12:49.078Z,7.90
2018-11-21T14:15:40.126Z,7.90
2018-11-21T14:18:09.700Z,7.80
2018-11-21T14:20:38.866Z,7.80
2018-11-21T14:23:07.736Z,7.70
2018-11-21T14:25:56.575Z,7.70
2018-11-21T14:28:25.931Z,7.50
2018-11-21T14:30:54.860Z,7.50
2018-11-21T14:33:23.917Z,7.50
2018-11-21T14:36:14.241Z,7.50
2018-11-21T14:38:56.865Z,7.50
2018-11-21T14:42:08.498Z,7.40
